createdAt,value
2022-11-20T00:01:31.943Z,94377.59
2022-11-20T00:03:58.185Z,94376.31
2022-11-20T00:06:24.465Z,94383.34
2022-11-20T00:08:50.712Z,94385.41
2022-11-20T00:11:16.973Z,94386.41
2022-11-20T00:13:43.245Z,94390.28
2022-11-20T00:16:09.476Z,94399.06
2022-11-20T00:18:35.766Z,94397.75
2022-11-20T00:21:02.010Z,94391.88
2022-11-20T00:23:28.270Z,94394.16
2022-11-20T00:25:54.541Z,94395.31
2022-11-20T00:28:20.767Z,94387.00
2022-11-20T00:30:47.061Z,94396.00
2022-11-20T00:33:13.323Z,94390.72
2022-11-20T00:35:39.569Z,94399.38
2022-11-20T00:38:05.833Z,94404.94
2022-11-20T00:40:32.074Z,94403.16
2022-11-20T00:42:58.320Z,94407.41
2022-11-20T00:45:24.553Z,94404.41
2022-11-20T00:47:50.786Z,94411.88
2022-11-20T00:50:17.022Z,94412.47
2022-11-20T00:52:43.258Z,94409.22
2022-11-20T00:55:09.491Z,94411.97
2022-11-20T00:57:35.725Z,94410.13
2022-11-20T01:00:01.953Z,94406.34
2022-11-20T01:02:28.213Z,94406.94
2022-11-20T01:04:54.466Z,94404.81
2022-11-20T01:07:20.794Z,94406.88
2022-11-20T01:09:47.099Z,94418.81
2022-11-20T01:12:13.352Z,94412.84
2022-11-20T01:14:39.586Z,94409.72
2022-11-20T01:17:05.817Z,94411.53
2022-11-20T01:19:32.084Z,94406.00
2022-11-20T01:21:58.329Z,94406.31
2022-11-20T01:24:24.558Z,94411.75
2022-11-20T01:26:50.817Z,94410.84
2022-11-20T01:29:17.061Z,94419.75
2022-11-20T01:31:43.307Z,94412.81
2022-11-20T01:34:09.558Z,94415.91
2022-11-20T01:36:35.809Z,94418.63
2022-11-20T01:39:02.050Z,94408.94
2022-11-20T01:41:28.274Z,94417.91
2022-11-20T01:43:54.529Z,94421.19
2022-11-20T01:46:20.781Z,94414.59
2022-11-20T01:48:47.029Z,94420.34
2022-11-20T01:51:13.282Z,94422.44
2022-11-20T01:53:39.514Z,94420.03
2022-11-20T01:56:05.782Z,94422.81
2022-11-20T01:58:32.062Z,94412.22
2022-11-20T02:00:58.319Z,94424.44
2022-11-20T02:03:24.613Z,94420.50
2022-11-20T02:05:50.893Z,94416.94
2022-11-20T02:08:17.148Z,94420.97
2022-11-20T02:10:43.395Z,94422.09
2022-11-20T02:13:09.621Z,94416.88
2022-11-20T02:15:35.859Z,94420.28
2022-11-20T02:18:02.108Z,94423.63
2022-11-20T02:20:28.374Z,94419.94
2022-11-20T02:22:54.634Z,94420.47
2022-11-20T02:25:20.866Z,94425.22
2022-11-20T02:27:47.134Z,94429.16
2022-11-20T02:30:13.404Z,94422.69
2022-11-20T02:32:39.657Z,94428.28
2022-11-20T02:35:05.960Z,94429.63
2022-11-20T02:37:32.197Z,94441.69
2022-11-20T02:39:58.433Z,94434.53
2022-11-20T02:42:24.669Z,94435.19
2022-11-20T02:44:50.909Z,94440.72
2022-11-20T02:47:17.191Z,94440.19
2022-11-20T02:49:43.457Z,94436.53
2022-11-20T02:52:09.689Z,94433.19
2022-11-20T02:54:35.964Z,94429.91
2022-11-20T02:57:02.190Z,94430.94
2022-11-20T02:59:28.461Z,94435.44
2022-11-20T03:01:54.714Z,94434.63
2022-11-20T03:04:20.953Z,94439.53
2022-11-20T03:06:47.215Z,94434.31
2022-11-20T03:09:13.446Z,94439.69
2022-11-20T03:11:39.706Z,94442.03
2022-11-20T03:14:06.042Z,94442.19
2022-11-20T03:16:32.280Z,94441.22
2022-11-20T03:18:58.520Z,94435.72
2022-11-20T03:21:24.765Z,94440.78
2022-11-20T03:23:51.030Z,94438.50
2022-11-20T03:26:17.385Z,94440.66
2022-11-20T03:28:43.613Z,94439.22
2022-11-20T03:31:09.912Z,94434.66
2022-11-20T03:33:36.156Z,94438.09
2022-11-20T03:36:02.422Z,94440.53
2022-11-20T03:38:28.655Z,94439.28
2022-11-20T03:40:54.882Z,94436.19
2022-11-20T03:43:21.110Z,94433.56
2022-11-20T03:45:47.349Z,94433.09
2022-11-20T03:48:13.600Z,94431.97
2022-11-20T03:50:39.892Z,94432.50
2022-11-20T03:53:06.138Z,94441.28
2022-11-20T03:55:32.369Z,94432.50
2022-11-20T03:57:58.628Z,94440.63
2022-11-20T04:00:24.849Z,94444.38
2022-11-20T04:02:51.107Z,94438.66
2022-11-20T04:05:17.341Z,94435.22
2022-11-20T04:07:43.571Z,94443.88
2022-11-20T04:10:09.809Z,94433.16
2022-11-20T04:12:36.052Z,94441.47
2022-11-20T04:15:02.308Z,94443.63
2022-11-20T04:17:28.560Z,94441.03
2022-11-20T04:19:54.790Z,94439.06
2022-11-20T04:22:21.029Z,94443.78
2022-11-20T04:24:47.259Z,94436.25
2022-11-20T04:27:13.518Z,94435.94
2022-11-20T04:29:39.741Z,94443.13
2022-11-20T04:32:05.972Z,94434.84
2022-11-20T04:34:32.225Z,94433.88
2022-11-20T04:36:58.575Z,94443.34
2022-11-20T04:39:24.897Z,94439.91
2022-11-20T04:41:51.182Z,94439.75
2022-11-20T04:44:17.525Z,94430.59
2022-11-20T04:46:43.755Z,94431.25
2022-11-20T04:49:09.982Z,94435.03
2022-11-20T04:51:36.246Z,94441.56
2022-11-20T04:54:02.516Z,94437.69
2022-11-20T04:56:28.755Z,94441.09
2022-11-20T04:58:55.023Z,94441.28
2022-11-20T05:01:21.307Z,94440.13
2022-11-20T05:03:47.606Z,94445.38
2022-11-20T05:06:13.860Z,94451.78
2022-11-20T05:08:40.087Z,94451.59
2022-11-20T05:11:06.360Z,94457.25
2022-11-20T05:13:32.621Z,94453.16
2022-11-20T05:15:58.938Z,94456.72
2022-11-20T05:18:25.196Z,94462.59
2022-11-20T05:20:51.529Z,94466.53
2022-11-20T05:23:17.762Z,94461.13
2022-11-20T05:25:44.010Z,94452.94
2022-11-20T05:28:10.248Z,94458.97
2022-11-20T05:30:36.501Z,94458.97
2022-11-20T05:33:02.753Z,94459.78
2022-11-20T05:35:28.998Z,94459.47
2022-11-20T05:37:55.366Z,94466.81
2022-11-20T05:40:21.598Z,94456.38
2022-11-20T05:42:47.867Z,94457.03
2022-11-20T05:45:14.124Z,94458.97
2022-11-20T05:47:40.385Z,94463.75
2022-11-20T05:50:06.622Z,94471.44
2022-11-20T05:52:32.868Z,94467.03
2022-11-20T05:54:59.174Z,94469.66
2022-11-20T05:57:25.429Z,94466.06
2022-11-20T05:59:51.675Z,94452.34
2022-11-20T06:02:17.958Z,94466.22
2022-11-20T06:04:44.264Z,94463.97
2022-11-20T06:07:10.585Z,94464.91
2022-11-20T06:09:36.885Z,94467.53
2022-11-20T06:12:03.128Z,94474.09
2022-11-20T06:14:29.379Z,94468.72
2022-11-20T06:16:55.606Z,94478.38
2022-11-20T06:19:21.977Z,94475.75
2022-11-20T06:21:48.441Z,94479.34
2022-11-20T06:24:14.688Z,94480.81
2022-11-20T06:26:40.935Z,94479.03
2022-11-20T06:29:07.184Z,94471.53
2022-11-20T06:31:33.419Z,94474.47
2022-11-20T06:33:59.675Z,94476.28
2022-11-20T06:36:25.936Z,94474.47
2022-11-20T06:38:52.196Z,94472.81
2022-11-20T06:41:18.441Z,94474.31
2022-11-20T06:43:44.702Z,94474.16
2022-11-20T06:46:10.941Z,94469.28
2022-11-20T06:48:37.180Z,94474.00
2022-11-20T06:51:03.435Z,94474.19
2022-11-20T06:53:29.681Z,94478.09
2022-11-20T06:55:55.929Z,94476.97
2022-11-20T06:58:22.177Z,94484.47
2022-11-20T07:00:48.445Z,94492.47
2022-11-20T07:03:14.697Z,94490.88
2022-11-20T07:05:40.940Z,94492.03
2022-11-20T07:08:07.183Z,94488.25
2022-11-20T07:10:33.436Z,94486.28
2022-11-20T07:12:59.683Z,94496.91
2022-11-20T07:15:25.922Z,94495.59
2022-11-20T07:17:52.165Z,94498.56
2022-11-20T07:20:18.416Z,94511.00
2022-11-20T07:22:44.664Z,94509.84
2022-11-20T07:25:10.899Z,94514.28
2022-11-20T07:27:37.155Z,94506.25
2022-11-20T07:30:03.407Z,94514.09
2022-11-20T07:32:29.660Z,94515.28
2022-11-20T07:34:55.897Z,94516.25
2022-11-20T07:37:22.124Z,94522.13
2022-11-20T07:39:48.373Z,94513.81
2022-11-20T07:42:14.609Z,94517.91
2022-11-20T07:44:40.869Z,94509.06
2022-11-20T07:47:07.099Z,94510.41
2022-11-20T07:49:33.345Z,94506.94
2022-11-20T07:52:04.410Z,94506.47
2022-11-20T07:54:31.476Z,94499.28
2022-11-20T07:56:57.714Z,94507.13
2022-11-20T07:59:24.158Z,94506.81
2022-11-20T08:01:50.590Z,94514.81
2022-11-20T08:04:16.825Z,94516.47
2022-11-20T08:06:43.054Z,94510.91
2022-11-20T08:09:09.301Z,94517.78
2022-11-20T08:11:35.534Z,94515.50
2022-11-20T08:14:01.793Z,94520.59
2022-11-20T08:16:28.025Z,94521.88
2022-11-20T08:18:54.291Z,94524.03
2022-11-20T08:21:20.525Z,94518.63
2022-11-20T08:23:46.768Z,94523.69
2022-11-20T08:26:13.021Z,94526.81
2022-11-20T08:28:39.272Z,94523.22
2022-11-20T08:31:05.534Z,94521.88
2022-11-20T08:33:31.773Z,94528.44
2022-11-20T08:35:58.015Z,94529.25
2022-11-20T08:38:24.260Z,94529.75
2022-11-20T08:40:50.542Z,94537.59
2022-11-20T08:43:16.806Z,94540.22
2022-11-20T08:45:43.056Z,94543.66
2022-11-20T08:48:09.313Z,94543.66
2022-11-20T08:50:35.569Z,94539.91
2022-11-20T08:53:01.820Z,94541.03
2022-11-20T08:55:28.078Z,94534.84
2022-11-20T08:57:54.332Z,94540.09
2022-11-20T09:00:20.580Z,94543.34
2022-11-20T09:02:46.817Z,94548.56
2022-11-20T09:05:13.049Z,94545.16
2022-11-20T09:07:39.357Z,94552.19
2022-11-20T09:12:51.830Z,94553.81
2022-11-20T09:15:18.087Z,94554.09
2022-11-20T09:17:44.332Z,94547.41
2022-11-20T09:20:10.569Z,94550.53
2022-11-20T09:22:36.819Z,94554.44
2022-11-20T09:25:03.071Z,94555.91
2022-11-20T09:27:29.318Z,94557.41
2022-11-20T09:29:55.567Z,94552.16
2022-11-20T09:32:21.796Z,94555.72
2022-11-20T09:34:48.040Z,94559.03
2022-11-20T09:37:14.275Z,94545.13
2022-11-20T09:39:40.511Z,94551.84
2022-11-20T09:42:06.760Z,94555.28
2022-11-20T09:44:32.995Z,94558.72
2022-11-20T09:46:59.238Z,94559.69
2022-11-20T09:49:31.930Z,94559.72
2022-11-20T09:51:58.484Z,94561.34
2022-11-20T09:54:24.728Z,94554.13
2022-11-20T09:56:50.980Z,94551.84
2022-11-20T09:59:17.216Z,94551.84
2022-11-20T10:01:43.447Z,94551.50
2022-11-20T10:04:09.694Z,94550.84
2022-11-20T10:06:35.927Z,94556.59
2022-11-20T10:09:02.180Z,94552.97
2022-11-20T10:11:28.437Z,94562.94
2022-11-20T10:13:54.683Z,94556.56
2022-11-20T10:16:20.919Z,94554.06
2022-11-20T10:18:47.151Z,94552.75
2022-11-20T10:21:13.385Z,94557.16
2022-11-20T10:23:39.630Z,94555.47
2022-11-20T10:26:05.871Z,94537.59
2022-11-20T10:28:32.120Z,94548.44
2022-11-20T10:30:58.349Z,94547.00
2022-11-20T10:33:24.602Z,94541.22
2022-11-20T10:35:50.831Z,94543.34
2022-11-20T10:38:17.061Z,94540.09
2022-11-20T10:40:43.312Z,94554.34
2022-11-20T10:43:09.566Z,94545.84
2022-11-20T10:45:35.808Z,94545.69
2022-11-20T10:48:02.038Z,94543.06
2022-11-20T10:50:28.293Z,94536.47
2022-11-20T10:52:54.519Z,94544.47
2022-11-20T10:55:20.765Z,94533.66
2022-11-20T10:57:46.994Z,94529.63
2022-11-20T11:00:13.236Z,94523.06
2022-11-20T11:02:39.484Z,94522.16
2022-11-20T11:05:08.146Z,94519.25
2022-11-20T11:07:37.937Z,94502.72
2022-11-20T11:10:04.213Z,94511.72
2022-11-20T11:12:30.448Z,94500.28
2022-11-20T11:14:56.797Z,94501.13
2022-11-20T11:17:23.040Z,94494.25
2022-11-20T11:19:49.272Z,94487.66
2022-11-20T11:22:15.521Z,94484.25
2022-11-20T11:24:43.262Z,94480.28
2022-11-20T11:27:13.729Z,94470.28
2022-11-20T11:29:42.972Z,94466.03
2022-11-20T11:32:09.202Z,94463.31
2022-11-20T11:34:35.430Z,94446.09
2022-11-20T11:37:01.660Z,94442.25
2022-11-20T11:39:27.897Z,94435.69
2022-11-20T11:41:54.142Z,94430.28
2022-11-20T11:44:20.393Z,94421.38
2022-11-20T11:46:46.626Z,94417.97
2022-11-20T11:49:12.884Z,94420.88
2022-11-20T11:51:39.128Z,94414.81
2022-11-20T11:54:05.361Z,94414.69
2022-11-20T11:56:31.603Z,94397.97
2022-11-20T11:58:57.855Z,94393.59
2022-11-20T12:01:24.096Z,94383.94
2022-11-20T12:03:50.322Z,94383.09
2022-11-20T12:06:16.559Z,94375.81
2022-11-20T12:08:42.821Z,94372.84
2022-11-20T12:11:09.114Z,94376.47
2022-11-20T12:13:36.725Z,94383.28
2022-11-20T12:16:02.954Z,94378.06
2022-11-20T12:18:29.213Z,94377.00
2022-11-20T12:20:55.457Z,94375.66
2022-11-20T12:23:21.683Z,94378.19
2022-11-20T12:25:47.933Z,94376.66
2022-11-20T12:28:14.162Z,94384.16
2022-11-20T12:30:40.390Z,94379.09
2022-11-20T12:33:06.630Z,94385.06
2022-11-20T12:35:33.085Z,94377.69
2022-11-20T12:37:59.308Z,94381.88
2022-11-20T12:40:25.538Z,94378.50
2022-11-20T12:42:51.769Z,94366.91
2022-11-20T12:45:17.998Z,94369.63
2022-11-20T12:47:44.237Z,94375.00
2022-11-20T12:50:10.493Z,94374.81
2022-11-20T12:52:36.761Z,94365.31
2022-11-20T12:55:03.022Z,94356.34
2022-11-20T12:57:29.272Z,94367.88
2022-11-20T12:59:55.511Z,94370.69
2022-11-20T13:02:21.737Z,94379.31
2022-11-20T13:04:47.973Z,94379.22
2022-11-20T13:07:14.246Z,94384.38
2022-11-20T13:09:40.506Z,94372.59
2022-11-20T13:12:06.734Z,94379.75
2022-11-20T13:14:32.962Z,94369.78
2022-11-20T13:17:04.738Z,94364.78
2022-11-20T13:19:32.215Z,94369.94
2022-11-20T13:21:58.445Z,94364.63
2022-11-20T13:24:25.064Z,94361.63
2022-11-20T13:26:51.491Z,94365.06
2022-11-20T13:29:17.723Z,94354.66
2022-11-20T13:31:43.945Z,94341.16
2022-11-20T13:34:10.192Z,94340.22
2022-11-20T13:36:36.418Z,94339.25
2022-11-20T13:39:02.647Z,94322.19
2022-11-20T13:41:28.889Z,94329.44
2022-11-20T13:43:55.246Z,94324.53
2022-11-20T13:46:21.523Z,94321.47
2022-11-20T13:48:47.752Z,94314.78
2022-11-20T13:51:14.119Z,94311.94
2022-11-20T13:53:40.395Z,94313.47
2022-11-20T13:56:06.626Z,94304.47
2022-11-20T13:58:32.872Z,94299.22
2022-11-20T14:00:59.176Z,94307.09
2022-11-20T14:03:51.285Z,94307.19
2022-11-20T14:06:11.675Z,94312.88
2022-11-20T14:08:37.920Z,94312.06
2022-11-20T14:11:04.176Z,94306.28
2022-11-20T14:13:30.426Z,94293.63
2022-11-20T14:15:56.673Z,94285.47
2022-11-20T14:18:22.923Z,94279.00
2022-11-20T14:20:49.168Z,94278.19
2022-11-20T14:23:15.393Z,94270.34
2022-11-20T14:25:41.650Z,94271.09
2022-11-20T14:28:07.883Z,94268.72
2022-11-20T14:30:34.117Z,94269.81
2022-11-20T14:33:00.380Z,94268.72
2022-11-20T14:35:26.639Z,94270.06
2022-11-20T14:37:52.866Z,94263.53
2022-11-20T14:40:19.100Z,94272.44
2022-11-20T14:42:45.349Z,94272.81
2022-11-20T14:45:11.577Z,94275.44
2022-11-20T14:47:37.809Z,94268.09
2022-11-20T14:50:08.815Z,94267.44
2022-11-20T14:52:36.303Z,94267.56
2022-11-20T14:55:02.533Z,94257.94
2022-11-20T14:57:28.759Z,94266.03
2022-11-20T14:59:54.995Z,94253.97
2022-11-20T15:02:21.246Z,94253.94
2022-11-20T15:04:47.522Z,94259.47
2022-11-20T15:07:13.814Z,94251.88
2022-11-20T15:09:40.107Z,94244.91
2022-11-20T15:12:06.335Z,94249.06
2022-11-20T15:14:32.577Z,94246.72
2022-11-20T15:16:58.838Z,94251.78
2022-11-20T15:19:25.069Z,94236.84
2022-11-20T15:21:51.301Z,94243.38
2022-11-20T15:24:17.531Z,94247.72
2022-11-20T15:26:44.820Z,94254.41
2022-11-20T15:29:11.055Z,94249.25
2022-11-20T15:31:37.305Z,94232.50
2022-11-20T15:34:03.558Z,94239.41
2022-11-20T15:36:29.800Z,94240.13
2022-11-20T15:38:56.028Z,94238.66
2022-11-20T15:41:22.279Z,94232.78
2022-11-20T15:43:48.534Z,94235.38
2022-11-20T15:46:14.788Z,94226.88
2022-11-20T15:48:47.359Z,94220.63
2022-11-20T15:51:14.365Z,94239.66
2022-11-20T15:53:40.613Z,94249.41
2022-11-20T15:56:06.849Z,94247.88
2022-11-20T15:58:33.112Z,94253.41
2022-11-20T16:00:59.415Z,94254.81
2022-11-20T16:03:25.712Z,94254.13
2022-11-20T16:05:51.942Z,94253.94
2022-11-20T16:08:18.177Z,94262.88
2022-11-20T16:10:44.425Z,94260.25
2022-11-20T16:13:10.766Z,94260.31
2022-11-20T16:15:37.000Z,94257.88
2022-11-20T16:18:03.247Z,94258.47
2022-11-20T16:20:29.485Z,94261.91
2022-11-20T16:22:55.710Z,94262.31
2022-11-20T16:25:21.962Z,94253.69
2022-11-20T16:27:48.205Z,94243.38
2022-11-20T16:30:14.430Z,94247.81
2022-11-20T16:32:40.774Z,94242.44
2022-11-20T16:35:07.017Z,94262.75
2022-11-20T16:37:33.246Z,94258.81
2022-11-20T16:39:59.476Z,94258.56
2022-11-20T16:42:25.711Z,94267.84
2022-11-20T16:44:52.146Z,94265.44
2022-11-20T16:47:18.398Z,94268.72
2022-11-20T16:49:44.638Z,94264.75
2022-11-20T16:52:10.899Z,94272.53
2022-11-20T16:54:37.153Z,94265.38
2022-11-20T16:57:03.405Z,94261.19
2022-11-20T16:59:29.657Z,94268.91
2022-11-20T17:01:55.941Z,94275.59
2022-11-20T17:04:22.610Z,94279.22
2022-11-20T17:06:49.169Z,94279.91
2022-11-20T17:09:15.422Z,94288.66
2022-11-20T17:11:41.661Z,94291.28
2022-11-20T17:14:07.887Z,94299.88
2022-11-20T17:16:34.121Z,94296.56
2022-11-20T17:19:03.388Z,94297.75
2022-11-20T17:21:30.034Z,94297.75
2022-11-20T17:23:56.300Z,94296.88
2022-11-20T17:26:22.530Z,94300.28
2022-11-20T17:28:48.757Z,94296.66
2022-11-20T17:31:15.003Z,94300.34
2022-11-20T17:33:41.268Z,94291.91
2022-11-20T17:36:07.504Z,94286.22
2022-11-20T17:38:33.735Z,94280.09
2022-11-20T17:40:59.969Z,94277.47
2022-11-20T17:43:26.203Z,94294.34
2022-11-20T17:45:52.436Z,94302.88
2022-11-20T17:48:18.674Z,94325.44
2022-11-20T17:50:44.921Z,94346.25
2022-11-20T17:53:11.166Z,94348.84
2022-11-20T17:55:37.416Z,94356.63
2022-11-20T17:58:03.665Z,94352.75
2022-11-20T18:00:29.910Z,94352.75
2022-11-20T18:02:56.153Z,94347.50
2022-11-20T18:05:22.397Z,94338.63
2022-11-20T18:07:48.669Z,94328.94
2022-11-20T18:10:14.953Z,94326.00
2022-11-20T18:12:41.198Z,94335.03
2022-11-20T18:15:07.457Z,94333.38
2022-11-20T18:17:33.711Z,94333.50
2022-11-20T18:22:46.153Z,94351.06
2022-11-20T18:25:12.417Z,94343.75
2022-11-20T18:27:38.670Z,94350.47
2022-11-20T18:30:04.902Z,94344.25
2022-11-20T18:32:31.630Z,94347.69
2022-11-20T18:34:57.905Z,94347.53
2022-11-20T18:37:24.129Z,94359.47
2022-11-20T18:39:50.426Z,94365.34
2022-11-20T18:42:16.758Z,94362.75
2022-11-20T18:44:43.008Z,94345.41
2022-11-20T18:47:14.204Z,94358.50
2022-11-20T18:49:41.002Z,94349.16
2022-11-20T18:52:07.241Z,94354.25
2022-11-20T18:54:33.466Z,94335.75
2022-11-20T18:56:59.697Z,94345.03
2022-11-20T18:59:25.926Z,94348.19
2022-11-20T19:01:52.199Z,94348.28
2022-11-20T19:04:18.442Z,94345.66
2022-11-20T19:06:44.682Z,94338.78
2022-11-20T19:09:10.936Z,94346.97
2022-11-20T19:11:37.185Z,94359.84
2022-11-20T19:14:03.431Z,94363.94
2022-11-20T19:16:29.675Z,94354.78
2022-11-20T19:18:57.274Z,94362.28
2022-11-20T19:21:23.658Z,94378.09
2022-11-20T19:23:49.911Z,94374.13
2022-11-20T19:26:16.218Z,94372.56
2022-11-20T19:28:42.491Z,94386.16
2022-11-20T19:31:08.813Z,94388.13
2022-11-20T19:33:35.046Z,94388.03
2022-11-20T19:36:01.269Z,94380.34
2022-11-20T19:38:27.517Z,94389.03
2022-11-20T19:40:53.765Z,94392.31
2022-11-20T19:43:20.011Z,94397.88
2022-11-20T19:45:46.349Z,94390.72
2022-11-20T19:48:12.583Z,94389.94
2022-11-20T19:50:38.831Z,94400.69
2022-11-20T19:53:05.094Z,94396.25
2022-11-20T19:55:31.356Z,94391.03
2022-11-20T19:57:57.588Z,94402.41
2022-11-20T20:00:29.591Z,94397.72
2022-11-20T20:02:58.488Z,94407.94
2022-11-20T20:05:24.761Z,94398.47
2022-11-20T20:07:51.009Z,94401.44
2022-11-20T20:10:17.253Z,94408.22
2022-11-20T20:12:43.497Z,94408.91
2022-11-20T20:15:09.763Z,94404.53
2022-11-20T20:17:36.445Z,94405.97
2022-11-20T20:20:02.694Z,94413.00
2022-11-20T20:22:28.931Z,94421.66
2022-11-20T20:24:55.236Z,94431.44
2022-11-20T20:27:21.476Z,94446.13
2022-11-20T20:29:47.732Z,94444.34
2022-11-20T20:32:13.964Z,94450.44
2022-11-20T20:34:40.309Z,94460.22
2022-11-20T20:37:06.559Z,94444.56
2022-11-20T20:39:32.809Z,94463.41
2022-11-20T20:41:59.048Z,94467.59
2022-11-20T20:44:25.289Z,94475.56
2022-11-20T20:46:51.524Z,94489.19
2022-11-20T20:49:17.751Z,94501.56
2022-11-20T20:51:43.991Z,94504.41
2022-11-20T20:54:10.221Z,94504.63
2022-11-20T20:56:36.470Z,94505.31
2022-11-20T20:59:02.701Z,94508.91
2022-11-20T21:01:29.148Z,94504.84
2022-11-20T21:03:56.021Z,94512.28
2022-11-20T21:06:22.254Z,94518.38
2022-11-20T21:08:48.508Z,94506.34
2022-11-20T21:11:14.782Z,94515.00
2022-11-20T21:13:41.028Z,94512.25
2022-11-20T21:16:07.269Z,94521.59
2022-11-20T21:18:33.505Z,94513.53
2022-11-20T21:20:59.749Z,94520.25
2022-11-20T21:23:26.005Z,94512.75
2022-11-20T21:25:52.237Z,94513.06
2022-11-20T21:28:18.638Z,94522.06
2022-11-20T21:30:44.894Z,94524.72
2022-11-20T21:33:11.134Z,94527.19
2022-11-20T21:35:37.384Z,94534.22
2022-11-20T21:38:03.617Z,94530.28
2022-11-20T21:40:29.861Z,94541.22
2022-11-20T21:42:56.105Z,94543.47
2022-11-20T21:45:22.339Z,94532.16
2022-11-20T21:47:48.599Z,94536.25
2022-11-20T21:50:14.825Z,94550.91
2022-11-20T21:52:41.055Z,94556.34
2022-11-20T21:55:07.304Z,94571.94
2022-11-20T21:57:33.539Z,94564.47
2022-11-20T21:59:59.769Z,94558.31
2022-11-20T22:02:26.033Z,94558.69
2022-11-20T22:04:52.267Z,94553.25
2022-11-20T22:07:18.601Z,94556.34
2022-11-20T22:09:44.914Z,94549.38
2022-11-20T22:12:11.146Z,94536.09
2022-11-20T22:14:37.386Z,94535.81
2022-11-20T22:17:03.633Z,94530.44
2022-11-20T22:19:29.886Z,94531.84
2022-11-20T22:21:56.118Z,94535.69
2022-11-20T22:24:22.815Z,94535.09
2022-11-20T22:26:49.396Z,94520.03
2022-11-20T22:29:15.644Z,94515.59
2022-11-20T22:31:41.877Z,94512.19
2022-11-20T22:34:08.145Z,94510.75
2022-11-20T22:36:34.380Z,94507.66
2022-11-20T22:39:00.629Z,94511.25
2022-11-20T22:41:26.864Z,94522.09
2022-11-20T22:43:53.094Z,94517.03
2022-11-20T22:46:19.361Z,94521.91
2022-11-20T22:48:45.609Z,94523.22
2022-11-20T22:51:11.908Z,94521.28
2022-11-20T22:53:38.146Z,94515.09
2022-11-20T22:56:04.381Z,94522.59
2022-11-20T22:58:30.640Z,94522.13
2022-11-20T23:00:56.870Z,94521.94
2022-11-20T23:03:23.121Z,94519.63
2022-11-20T23:05:49.401Z,94521.47
2022-11-20T23:08:15.631Z,94521.63
2022-11-20T23:10:41.921Z,94506.41
2022-11-20T23:13:08.168Z,94513.31
2022-11-20T23:15:34.423Z,94521.16
2022-11-20T23:18:00.676Z,94527.03
2022-11-20T23:20:26.933Z,94529.53
2022-11-20T23:22:53.176Z,94530.44
2022-11-20T23:25:19.428Z,94532.09
2022-11-20T23:27:45.667Z,94539.59
2022-11-20T23:30:11.907Z,94538.41
2022-11-20T23:32:38.150Z,94525.78
2022-11-20T23:35:04.378Z,94529.69
2022-11-20T23:37:30.611Z,94535.28
2022-11-20T23:39:56.838Z,94524.00
2022-11-20T23:42:23.088Z,94517.63
2022-11-20T23:44:49.345Z,94527.22
2022-11-20T23:47:15.578Z,94520.84
2022-11-20T23:49:41.828Z,94513.03
2022-11-20T23:52:08.083Z,94512.91
2022-11-20T23:54:34.309Z,94501.44
2022-11-20T23:57:00.562Z,94487.41
2022-11-20T23:59:26.821Z,94474.13
